PAEI METAR and TAF weather

Enter ICAO airport designator
Station Type Date Time Source
PAEI METAR 2022/12/04 10:55 UTC NOAA

PAEI 041055Z 00000KT 1/4SM R32/1600V2000FT FZFG BKN002 M10/M12 A3022 RMK AO2A SLP247 T11011116 CHINO RWY14


Station Type Date Time Source
PAEI Decoded METAR 2022/12/04 10:55 UTC NOAA

Fairbanks, Eielson Air Force Base, AK, United States (PAEI) 64-39N 147-06W 167M
Dec 04, 2022 - 05:55 AM EST / 2022.12.04 1055 UTC
Wind: Calm (direction variable):0
Visibility: 1/4 mile(s):0
Sky conditions: mostly cloudy
Weather: freezing fog
Temperature: 13.8 F (-10.1 C)
Dew Point: 11.1 F (-11.6 C)
Relative Humidity: 88%
Pressure (altimeter): 30.22 in. Hg (1023 hPa)
ob: PAEI 041055Z 00000KT 1/4SM R32/1600V2000FT FZFG BKN002 M10/M12 A3022 RMK AO2A SLP247 T11011116 CHINO RWY14
cycle: 11

Station Type Date Time Source
PAEI TAF 2022/12/04 08:53 UTC NOAA

TAF
AMD PAEI 040835Z 0408/0512 VRB04KT 4800 BR FEW040 SCT100 SCT150 QNH3021INS
BECMG 0411/0412 VRB04KT 1600 BR FEW100 SCT150 510152 QNH3009INS
BECMG 0420/0421 VRB04KT 9999 NSW FEW200 WS015/15025KT QNH2999INS
BECMG 0503/0504 VRB04KT 9000 BCFG SCT200 510152 QNH2996INS TXM08/0408Z TNM14/0506Z LAST NO
AMDS AFT 0408 NEXT 0416

Example: see airport list